DEDBC EDDH-ZZZZ
Flight info
| Callsign | DEDBC |
|---|---|
| Flight time | N/A |
| Altitude | |
| Route | |
| Aircraft | C152 |
Departure
| Time | 2026-05-05 12:58 |
|---|---|
| Airport | Hamburg Helmut Schmidt Airport (EDDH) |
Arrival
| Time | N/A |
|---|---|
| Airport | ZZZZ |
| Time | Latitude | Longitude | Altitude | Speed | Heading |
|---|---|---|---|---|---|
| 2026-05-05 12:52 | 53.62621 | 9.98806 | 37 ft | 0 kts | 62° |
| 2026-05-05 12:54 | 53.62622 | 9.98807 | 37 ft | 2 kts | 59° |
| 2026-05-05 12:54 | 53.62678 | 9.98848 | 37 ft | 16 kts | 7° |
| 2026-05-05 12:55 | 53.62816 | 9.98907 | 37 ft | 17 kts | 332° |
| 2026-05-05 12:55 | 53.62782 | 9.98739 | 37 ft | 18 kts | 232° |
| 2026-05-05 12:55 | 53.62703 | 9.98553 | 37 ft | 20 kts | 265° |
| 2026-05-05 12:55 | 53.62728 | 9.98486 | 37 ft | 0 kts | 20° |
| 2026-05-05 12:57 | 53.62759 | 9.98485 | 38 ft | 13 kts | 357° |
| 2026-05-05 12:57 | 53.62906 | 9.98582 | 37 ft | 33 kts | 40° |
| 2026-05-05 12:57 | 53.63020 | 9.98776 | 37 ft | 4 kts | 73° |
| 2026-05-05 12:57 | 53.63075 | 9.98875 | 38 ft | 36 kts | 45° |
| 2026-05-05 12:58 | 53.63303 | 9.99324 | 200 ft | 52 kts | 50° |
| 2026-05-05 12:58 | 53.63565 | 9.99778 | 411 ft | 53 kts | 50° |
| 2026-05-05 12:58 | 53.63826 | 10.00208 | 643 ft | 53 kts | 51° |
| 2026-05-05 12:58 | 53.63874 | 10.00834 | 747 ft | 73 kts | 113° |
| 2026-05-05 12:59 | 53.63439 | 10.01432 | 819 ft | 90 kts | 149° |
| 2026-05-05 12:59 | 53.62860 | 10.01791 | 1039 ft | 90 kts | 161° |
| 2026-05-05 12:59 | 53.62224 | 10.02111 | 1154 ft | 101 kts | 158° |
| 2026-05-05 13:00 | 53.60938 | 10.01196 | 1392 ft | 107 kts | 220° |
| 2026-05-05 13:00 | 53.60431 | 10.00291 | 1385 ft | 106 kts | 230° |
| 2026-05-05 13:01 | 53.59253 | 9.97235 | 1263 ft | 97 kts | 262° |
| 2026-05-05 13:01 | 53.59429 | 9.96337 | 1226 ft | 84 kts | 323° |
| 2026-05-05 13:01 | 53.59926 | 9.95874 | 1091 ft | 80 kts | 351° |
| 2026-05-05 13:01 | 53.60430 | 9.95488 | 775 ft | 79 kts | 336° |
| 2026-05-05 13:02 | 53.60910 | 9.95309 | 526 ft | 68 kts | 10° |
| 2026-05-05 13:02 | 53.61298 | 9.95529 | 279 ft | 53 kts | 41° |
| 2026-05-05 13:02 | 53.61555 | 9.95918 | 148 ft | 48 kts | 45° |
| 2026-05-05 13:02 | 53.61794 | 9.96302 | 87 ft | 49 kts | 51° |
| 2026-05-05 13:03 | 53.62022 | 9.96766 | 43 ft | 46 kts | 52° |
| 2026-05-05 13:03 | 53.62210 | 9.97156 | 41 ft | 58 kts | 51° |
| 2026-05-05 13:03 | 53.62265 | 9.97766 | 297 ft | 57 kts | 109° |
| 2026-05-05 13:03 | 53.62015 | 9.98425 | 459 ft | 72 kts | 122° |
| 2026-05-05 13:04 | 53.61510 | 9.98838 | 536 ft | 96 kts | 177° |
| 2026-05-05 13:04 | 53.60963 | 9.98415 | 793 ft | 89 kts | 212° |
| 2026-05-05 13:04 | 53.60429 | 9.98387 | 1028 ft | 82 kts | 126° |
| 2026-05-05 13:04 | 53.60537 | 9.99198 | 1124 ft | 89 kts | 26° |
| 2026-05-05 13:05 | 53.60928 | 9.98573 | 1239 ft | 104 kts | 251° |
| 2026-05-05 13:05 | 53.60373 | 9.98346 | 1341 ft | 85 kts | 117° |
| 2026-05-05 13:05 | 53.60646 | 9.98795 | 1553 ft | 67 kts | 334° |
| 2026-05-05 13:05 | 53.60713 | 9.97876 | 1432 ft | 108 kts | 240° |
| 2026-05-05 13:06 | 53.60078 | 9.97443 | 1420 ft | 91 kts | 155° |
| 2026-05-05 13:06 | 53.59719 | 9.98181 | 1327 ft | 82 kts | 96° |
| 2026-05-05 13:06 | 53.59913 | 9.98947 | 1295 ft | 73 kts | 29° |
| 2026-05-05 13:06 | 53.60325 | 9.98586 | 1256 ft | 90 kts | 279° |
| 2026-05-05 13:07 | 53.60244 | 9.97480 | 1062 ft | 94 kts | 261° |
| 2026-05-05 13:07 | 53.60152 | 9.96397 | 855 ft | 93 kts | 275° |
| 2026-05-05 13:07 | 53.60374 | 9.95480 | 663 ft | 76 kts | 327° |
| 2026-05-05 13:07 | 53.60835 | 9.95261 | 422 ft | 63 kts | 5° |
| 2026-05-05 13:08 | 53.61226 | 9.95383 | 256 ft | 54 kts | 32° |
| 2026-05-05 13:08 | 53.61491 | 9.95747 | 116 ft | 44 kts | 40° |
| 2026-05-05 13:08 | 53.61713 | 9.96150 | 95 ft | 50 kts | 52° |
| 2026-05-05 13:08 | 53.61926 | 9.96579 | 36 ft | 37 kts | 54° |
| 2026-05-05 13:09 | 53.62042 | 9.96822 | 34 ft | 30 kts | 48° |
| 2026-05-05 13:09 | 53.62267 | 9.97272 | 167 ft | 51 kts | 52° |
| 2026-05-05 13:09 | 53.62467 | 9.97767 | 431 ft | 40 kts | 90° |
| 2026-05-05 13:09 | 53.62134 | 9.98293 | 481 ft | 83 kts | 151° |
| 2026-05-05 13:10 | 53.61589 | 9.98640 | 710 ft | 82 kts | 149° |
| 2026-05-05 13:10 | 53.60993 | 9.98604 | 867 ft | 97 kts | 210° |
| 2026-05-05 13:10 | 53.60533 | 9.97722 | 1054 ft | 102 kts | 228° |
| 2026-05-05 13:10 | 53.60005 | 9.96905 | 1181 ft | 104 kts | 223° |
| 2026-05-05 13:11 | 53.59725 | 9.95837 | 1257 ft | 98 kts | 279° |
| 2026-05-05 13:11 | 53.59972 | 9.94754 | 1202 ft | 99 kts | 312° |
| 2026-05-05 13:11 | 53.60521 | 9.94448 | 1147 ft | 86 kts | 19° |
| 2026-05-05 13:11 | 53.61010 | 9.94877 | 699 ft | 77 kts | 41° |
| 2026-05-05 13:12 | 53.61358 | 9.95498 | 328 ft | 68 kts | 55° |
| 2026-05-05 13:12 | 53.61627 | 9.95998 | 137 ft | 47 kts | 47° |
| 2026-05-05 13:12 | 53.61836 | 9.96386 | 64 ft | 46 kts | 52° |
| 2026-05-05 13:12 | 53.62045 | 9.96830 | 64 ft | 51 kts | 52° |
| 2026-05-05 13:13 | 53.62241 | 9.97212 | 36 ft | 31 kts | 52° |
| 2026-05-05 13:13 | 53.62350 | 9.97431 | 36 ft | 22 kts | 50° |
| 2026-05-05 13:13 | 53.62458 | 9.97649 | 35 ft | 26 kts | 53° |
| 2026-05-05 13:13 | 53.62598 | 9.97927 | 37 ft | 35 kts | 51° |
| 2026-05-05 13:14 | 53.62752 | 9.98246 | 38 ft | 20 kts | 60° |
| 2026-05-05 13:14 | 53.62706 | 9.98412 | 37 ft | 17 kts | 131° |
| 2026-05-05 13:14 | 53.62676 | 9.98458 | 37 ft | 7 kts | 127° |
| 2026-05-05 13:14 | 53.62715 | 9.98635 | 37 ft | 15 kts | 99° |
| 2026-05-05 13:15 | 53.62649 | 9.98621 | 37 ft | 0 kts | 187° |